createdAt,value
2023-04-19T00:01:16.648Z,13.86
2023-04-19T00:03:43.287Z,14.15
2023-04-19T00:06:10.484Z,13.86
2023-04-19T00:08:37.158Z,13.81
2023-04-19T00:11:03.677Z,14.11
2023-04-19T00:13:30.381Z,13.79
2023-04-19T00:15:56.880Z,14.10
2023-04-19T00:18:23.416Z,13.77
2023-04-19T00:20:50.019Z,13.71
2023-04-19T00:23:16.866Z,13.68
2023-04-19T00:25:43.459Z,13.63
2023-04-19T00:28:09.980Z,13.59
2023-04-19T00:30:36.557Z,13.57
2023-04-19T00:33:03.422Z,13.54
2023-04-19T00:35:30.011Z,13.48
2023-04-19T00:37:56.658Z,13.47
2023-04-19T00:40:23.215Z,13.44
2023-04-19T00:42:49.776Z,13.42
2023-04-19T00:45:16.389Z,13.38
2023-04-19T00:47:43.128Z,13.33
2023-04-19T00:50:09.947Z,13.63
2023-04-19T00:52:36.825Z,13.29
2023-04-19T00:55:05.041Z,13.25
2023-04-19T00:57:31.596Z,13.18
2023-04-19T00:59:59.030Z,13.15
2023-04-19T01:02:26.193Z,13.09
2023-04-19T01:04:53.082Z,13.05
2023-04-19T01:07:19.664Z,13.34
2023-04-19T01:09:46.842Z,12.99
2023-04-19T01:12:13.472Z,12.91
2023-04-19T01:14:40.524Z,12.86
2023-04-19T01:17:08.742Z,12.80
2023-04-19T01:19:36.574Z,12.72
2023-04-19T01:22:04.287Z,12.65
2023-04-19T01:24:31.079Z,12.56
2023-04-19T01:26:57.594Z,12.85
2023-04-19T01:29:24.178Z,12.48
2023-04-19T01:31:54.161Z,12.39
2023-04-19T01:34:21.003Z,12.31
2023-04-19T01:36:47.638Z,12.60
2023-04-19T01:39:14.240Z,12.24
2023-04-19T01:41:40.894Z,12.15
2023-04-19T01:44:07.767Z,12.07
2023-04-19T01:46:34.464Z,12.00
2023-04-19T01:49:00.939Z,12.28
2023-04-19T01:51:27.530Z,11.92
2023-04-19T01:53:54.885Z,11.87
2023-04-19T01:56:24.072Z,11.77
2023-04-19T01:58:51.061Z,11.71
2023-04-19T02:01:17.731Z,11.65
2023-04-19T02:03:44.714Z,11.61
2023-04-19T02:06:14.732Z,11.59
2023-04-19T02:08:42.616Z,11.50
2023-04-19T02:11:10.528Z,11.44
2023-04-19T02:13:37.226Z,11.38
2023-04-19T02:16:03.925Z,11.67
2023-04-19T02:18:30.491Z,11.35
2023-04-19T02:20:57.037Z,11.26
2023-04-19T02:23:23.592Z,11.21
2023-04-19T02:25:50.780Z,11.15
2023-04-19T02:28:17.470Z,11.08
2023-04-19T02:30:44.082Z,11.05
2023-04-19T02:33:10.700Z,11.01
2023-04-19T02:35:37.511Z,10.97
2023-04-19T02:38:04.581Z,11.25
2023-04-19T02:40:31.807Z,10.93
2023-04-19T02:42:58.389Z,10.85
2023-04-19T02:45:24.983Z,10.81
2023-04-19T02:47:51.719Z,10.77
2023-04-19T02:50:18.306Z,11.03
2023-04-19T02:52:44.930Z,10.70
2023-04-19T02:55:11.648Z,10.64
2023-04-19T02:57:38.284Z,10.59
2023-04-19T03:00:06.086Z,10.55
2023-04-19T03:02:32.727Z,10.49
2023-04-19T03:04:59.431Z,10.77
2023-04-19T03:07:26.214Z,10.43
2023-04-19T03:09:52.938Z,10.71
2023-04-19T03:12:19.548Z,10.36
2023-04-19T03:14:46.177Z,10.30
2023-04-19T03:17:12.758Z,10.25
2023-04-19T03:19:39.286Z,10.21
2023-04-19T03:22:05.920Z,10.19
2023-04-19T03:24:33.966Z,10.14
2023-04-19T03:27:02.727Z,10.09
2023-04-19T03:29:29.323Z,10.07
2023-04-19T03:31:56.001Z,10.06
2023-04-19T03:34:22.683Z,10.02
2023-04-19T03:36:49.241Z,9.99
2023-04-19T03:39:15.799Z,9.96
2023-04-19T03:41:42.365Z,10.01
2023-04-19T03:44:08.936Z,10.15
2023-04-19T03:46:35.578Z,10.36
2023-04-19T03:49:02.215Z,10.63
2023-04-19T03:51:28.837Z,10.93
2023-04-19T03:53:55.483Z,11.25
2023-04-19T03:56:22.055Z,11.57
2023-04-19T03:58:51.649Z,11.90
2023-04-19T04:01:19.914Z,12.18
2023-04-19T04:03:46.684Z,12.47
2023-04-19T04:06:13.664Z,12.73
2023-04-19T04:08:40.267Z,12.98
2023-04-19T04:11:06.915Z,13.22
2023-04-19T04:13:33.439Z,13.43
2023-04-19T04:16:00.467Z,13.63
2023-04-19T04:18:28.696Z,13.81
2023-04-19T04:20:55.726Z,13.97
2023-04-19T04:23:22.899Z,14.12
2023-04-19T04:26:00.968Z,14.32
2023-04-19T04:28:31.083Z,14.42
2023-04-19T04:30:58.283Z,14.54
2023-04-19T04:33:26.571Z,14.66
2023-04-19T04:35:54.499Z,14.79
2023-04-19T04:38:24.778Z,14.89
2023-04-19T04:40:53.883Z,14.94
2023-04-19T04:43:22.793Z,14.93
2023-04-19T04:45:49.976Z,14.87
2023-04-19T04:48:16.628Z,14.76
2023-04-19T04:50:44.313Z,14.64
2023-04-19T04:53:13.089Z,14.46
2023-04-19T04:55:39.897Z,14.28
2023-04-19T04:58:06.962Z,14.08
2023-04-19T05:00:34.695Z,13.87
2023-04-19T05:03:03.129Z,13.67
2023-04-19T05:05:30.131Z,13.50
2023-04-19T05:07:56.748Z,13.79
2023-04-19T05:10:23.489Z,13.51
2023-04-19T05:12:49.922Z,13.83
2023-04-19T05:15:16.483Z,13.67
2023-04-19T05:17:43.559Z,13.80
2023-04-19T05:20:10.922Z,13.91
2023-04-19T05:22:37.792Z,14.04
2023-04-19T05:25:05.050Z,14.11
2023-04-19T05:27:31.687Z,14.12
2023-04-19T05:29:58.248Z,14.09
2023-04-19T05:32:24.898Z,14.02
2023-04-19T05:34:51.366Z,14.28
2023-04-19T05:37:17.969Z,13.87
2023-04-19T05:39:44.873Z,13.73
2023-04-19T05:42:11.633Z,13.56
2023-04-19T05:44:38.215Z,13.44
2023-04-19T05:47:04.824Z,13.32
2023-04-19T05:49:31.630Z,13.18
2023-04-19T05:51:58.284Z,13.06
2023-04-19T05:54:24.912Z,12.96
2023-04-19T05:56:51.516Z,12.85
2023-04-19T05:59:18.072Z,12.77
2023-04-19T06:01:44.797Z,12.68
2023-04-19T06:04:11.629Z,12.59
2023-04-19T06:06:38.286Z,12.85
2023-04-19T06:09:05.010Z,12.49
2023-04-19T06:11:39.036Z,12.74
2023-04-19T06:14:15.088Z,12.38
2023-04-19T06:16:42.371Z,12.30
2023-04-19T06:19:09.009Z,12.25
2023-04-19T06:21:35.700Z,12.22
2023-04-19T06:24:02.584Z,12.19
2023-04-19T06:26:29.094Z,12.48
2023-04-19T06:28:56.036Z,12.20
2023-04-19T06:31:22.598Z,12.18
2023-04-19T06:33:49.273Z,12.19
2023-04-19T06:36:15.867Z,12.19
2023-04-19T06:38:44.621Z,12.20
2023-04-19T06:41:11.232Z,12.20
2023-04-19T06:43:37.862Z,12.21
2023-04-19T06:46:07.781Z,12.21
2023-04-19T06:48:35.268Z,12.22
2023-04-19T06:51:05.059Z,12.25
2023-04-19T06:53:31.680Z,12.27
2023-04-19T06:56:03.148Z,12.32
2023-04-19T06:58:30.132Z,12.33
2023-04-19T07:00:57.309Z,12.36
2023-04-19T07:03:24.175Z,12.39
2023-04-19T07:05:52.477Z,12.41
2023-04-19T07:08:19.181Z,12.43
2023-04-19T07:10:45.970Z,12.74
2023-04-19T07:13:12.564Z,12.56
2023-04-19T07:15:39.243Z,12.60
2023-04-19T07:18:05.876Z,12.90
2023-04-19T07:20:32.702Z,12.74
2023-04-19T07:22:59.740Z,12.80
2023-04-19T07:25:27.529Z,12.86
2023-04-19T07:27:55.221Z,12.94
2023-04-19T07:30:22.676Z,13.02
2023-04-19T07:32:51.777Z,13.08
2023-04-19T07:35:19.590Z,13.15
2023-04-19T07:37:46.485Z,13.20
2023-04-19T07:40:13.425Z,13.27
2023-04-19T07:42:40.017Z,13.32
2023-04-19T07:45:07.298Z,13.39
2023-04-19T07:47:33.972Z,13.47
2023-04-19T07:50:00.476Z,13.79
2023-04-19T07:52:27.095Z,13.66
2023-04-19T07:54:53.626Z,13.74
2023-04-19T07:57:20.243Z,13.79
2023-04-19T07:59:46.870Z,13.85
2023-04-19T08:02:13.595Z,13.91
2023-04-19T08:04:40.481Z,14.19
2023-04-19T08:07:09.556Z,14.07
2023-04-19T08:09:37.951Z,14.12
2023-04-19T08:12:04.615Z,14.18
2023-04-19T08:14:40.551Z,14.29
2023-04-19T08:17:25.663Z,14.35
2023-04-19T08:19:54.900Z,14.42
2023-04-19T08:22:21.724Z,14.70
2023-04-19T08:24:52.106Z,14.60
2023-04-19T08:27:19.219Z,14.62
2023-04-19T08:29:46.595Z,14.68
2023-04-19T08:32:13.584Z,14.75
2023-04-19T08:34:40.525Z,14.83
2023-04-19T08:37:07.655Z,14.90
2023-04-19T08:39:35.086Z,14.98
2023-04-19T08:42:13.287Z,15.09
2023-04-19T08:45:23.247Z,15.19
2023-04-19T08:47:58.840Z,15.30
2023-04-19T08:50:34.380Z,15.41
2023-04-19T08:55:32.432Z,15.62
2023-04-19T08:57:58.998Z,15.71
2023-04-19T09:00:25.898Z,15.83
2023-04-19T09:02:54.606Z,15.92
2023-04-19T09:05:21.690Z,16.00
2023-04-19T09:07:48.791Z,16.10
2023-04-19T09:10:20.218Z,16.20
2023-04-19T09:13:02.250Z,16.34
2023-04-19T09:15:40.027Z,16.42
2023-04-19T09:18:12.585Z,16.50
2023-04-19T09:20:44.256Z,16.61
2023-04-19T09:23:13.749Z,16.70
2023-04-19T09:28:31.909Z,16.87
2023-04-19T09:31:10.680Z,16.97
2023-04-19T09:33:42.296Z,17.10
2023-04-19T09:36:09.376Z,17.18
2023-04-19T09:38:49.888Z,17.34
2023-04-19T09:41:17.597Z,17.36
2023-04-19T09:44:07.406Z,17.46
2023-04-19T09:46:36.289Z,17.63
2023-04-19T09:49:27.796Z,17.77
2023-04-19T09:51:57.797Z,17.85
2023-04-19T09:54:28.875Z,17.98
2023-04-19T09:56:57.468Z,18.08
2023-04-19T09:59:25.313Z,18.21
2023-04-19T10:01:54.835Z,18.32
2023-04-19T10:04:33.561Z,18.37
2023-04-19T10:09:49.612Z,18.47
2023-04-19T10:12:46.169Z,18.51
2023-04-19T10:15:10.773Z,18.58
2023-04-19T10:17:37.719Z,18.60
2023-04-19T10:20:13.337Z,18.67
2023-04-19T10:22:40.256Z,18.72
2023-04-19T10:25:13.776Z,18.81
2023-04-19T10:27:41.991Z,18.84
2023-04-19T10:30:18.647Z,18.96
2023-04-19T10:32:52.214Z,19.01
2023-04-19T10:35:29.709Z,19.08
2023-04-19T10:38:04.390Z,19.18
2023-04-19T10:40:57.801Z,19.34
2023-04-19T10:43:25.790Z,19.37
2023-04-19T10:45:52.790Z,19.48
2023-04-19T10:48:33.564Z,19.62
2023-04-19T10:51:17.015Z,19.69
2023-04-19T10:53:59.556Z,19.81
2023-04-19T10:56:35.205Z,19.95
2023-04-19T10:59:02.287Z,20.00
2023-04-19T11:01:45.152Z,20.17
2023-04-19T11:04:12.997Z,20.26
2023-04-19T11:07:01.161Z,20.46
2023-04-19T11:09:38.911Z,20.54
2023-04-19T11:12:08.705Z,20.66
2023-04-19T11:14:43.603Z,20.77
2023-04-19T11:17:28.178Z,20.91
2023-04-19T11:19:56.862Z,20.90
2023-04-19T11:22:30.117Z,20.95
2023-04-19T11:24:56.808Z,20.97
2023-04-19T11:27:23.456Z,21.03
2023-04-19T11:29:50.051Z,21.09
2023-04-19T11:32:16.760Z,21.12
2023-04-19T11:34:43.342Z,21.15
2023-04-19T11:37:11.121Z,21.18
2023-04-19T11:39:46.201Z,21.24
2023-04-19T11:42:18.544Z,21.23
2023-04-19T11:44:50.548Z,21.23
2023-04-19T11:47:17.907Z,21.21
2023-04-19T11:49:44.585Z,21.21
2023-04-19T11:52:11.190Z,21.23
2023-04-19T11:54:37.955Z,21.26
2023-04-19T11:57:06.880Z,21.29
2023-04-19T11:59:35.660Z,21.33
2023-04-19T12:02:07.741Z,21.37
2023-04-19T12:04:35.318Z,21.36
2023-04-19T12:07:10.057Z,21.38
2023-04-19T12:09:37.062Z,21.42
2023-04-19T12:12:04.136Z,21.47
2023-04-19T12:14:31.697Z,21.50
2023-04-19T12:17:12.310Z,21.61
2023-04-19T12:19:44.251Z,21.66
2023-04-19T12:22:16.556Z,21.70
2023-04-19T12:24:43.732Z,21.73
2023-04-19T12:27:11.435Z,21.75
2023-04-19T12:29:39.177Z,21.79
2023-04-19T12:32:06.450Z,21.81
2023-04-19T12:34:33.264Z,21.81
2023-04-19T12:36:59.909Z,21.83
2023-04-19T12:39:26.531Z,21.83
2023-04-19T12:41:53.150Z,21.81
2023-04-19T12:44:19.748Z,21.77
2023-04-19T12:46:46.572Z,21.74
2023-04-19T12:49:13.191Z,21.73
2023-04-19T12:51:39.817Z,21.73
2023-04-19T12:54:07.750Z,21.78
2023-04-19T12:56:35.249Z,21.82
2023-04-19T12:59:01.868Z,21.85
2023-04-19T13:01:28.445Z,21.87
2023-04-19T13:03:58.123Z,21.85
2023-04-19T13:06:26.407Z,21.79
2023-04-19T13:08:55.026Z,21.70
2023-04-19T13:11:23.611Z,21.62
2023-04-19T13:13:51.966Z,21.56
2023-04-19T13:16:19.267Z,21.54
2023-04-19T13:18:45.923Z,21.53
2023-04-19T13:21:12.514Z,21.52
2023-04-19T13:23:39.114Z,21.44
2023-04-19T13:26:06.630Z,21.39
2023-04-19T13:28:35.974Z,21.40
2023-04-19T13:31:06.349Z,21.46
2023-04-19T13:33:33.329Z,21.48
2023-04-19T13:36:00.184Z,21.42
2023-04-19T13:38:26.784Z,21.35
2023-04-19T13:40:53.446Z,21.23
2023-04-19T13:43:20.168Z,21.08
2023-04-19T13:45:46.742Z,20.93
2023-04-19T13:48:13.380Z,20.81
2023-04-19T13:50:39.979Z,20.76
2023-04-19T13:53:06.706Z,20.75
2023-04-19T13:55:33.537Z,20.76
2023-04-19T13:58:00.314Z,20.74
2023-04-19T14:00:27.119Z,20.69
2023-04-19T14:02:55.192Z,20.64
2023-04-19T14:05:21.901Z,20.58
2023-04-19T14:07:48.573Z,20.59
2023-04-19T14:10:15.127Z,20.60
2023-04-19T14:12:41.713Z,20.94
2023-04-19T14:15:08.671Z,20.73
2023-04-19T14:17:36.094Z,20.74
2023-04-19T14:20:05.657Z,20.77
2023-04-19T14:22:34.138Z,20.74
2023-04-19T14:25:00.713Z,20.68
2023-04-19T14:27:27.326Z,20.58
2023-04-19T14:29:53.907Z,20.47
2023-04-19T14:32:26.518Z,20.76
2023-04-19T14:34:55.014Z,20.28
2023-04-19T14:37:22.395Z,20.13
2023-04-19T14:39:48.971Z,20.01
2023-04-19T14:42:15.558Z,20.32
2023-04-19T14:44:42.110Z,19.83
2023-04-19T14:47:08.629Z,20.11
2023-04-19T14:49:35.325Z,19.60
2023-04-19T14:52:01.901Z,19.48
2023-04-19T14:54:29.042Z,19.79
2023-04-19T14:56:55.646Z,19.41
2023-04-19T14:59:22.199Z,19.70
2023-04-19T15:01:48.878Z,19.36
2023-04-19T15:04:16.610Z,19.32
2023-04-19T15:06:43.398Z,19.35
2023-04-19T15:09:10.450Z,19.39
2023-04-19T15:11:37.108Z,19.39
2023-04-19T15:14:03.686Z,19.36
2023-04-19T15:16:30.273Z,19.68
2023-04-19T15:18:57.311Z,19.29
2023-04-19T15:21:24.806Z,19.20
2023-04-19T15:23:51.596Z,19.12
2023-04-19T15:26:18.141Z,19.45
2023-04-19T15:28:44.781Z,19.14
2023-04-19T15:31:11.598Z,19.14
2023-04-19T15:33:38.279Z,19.16
2023-04-19T15:36:04.968Z,19.49
2023-04-19T15:38:32.795Z,19.20
2023-04-19T15:41:01.378Z,19.10
2023-04-19T15:43:28.155Z,19.02
2023-04-19T15:45:55.053Z,18.97
2023-04-19T15:48:22.004Z,18.91
2023-04-19T15:50:48.592Z,18.86
2023-04-19T15:53:15.476Z,19.21
2023-04-19T15:55:42.166Z,18.85
2023-04-19T15:58:08.817Z,19.15
2023-04-19T16:00:35.646Z,18.72
2023-04-19T16:03:03.044Z,18.61
2023-04-19T16:05:29.976Z,18.52
2023-04-19T16:08:07.537Z,18.55
2023-04-19T16:10:34.368Z,18.42
2023-04-19T16:13:01.580Z,18.39
2023-04-19T16:15:28.389Z,18.38
2023-04-19T16:17:55.104Z,18.39
2023-04-19T16:20:21.921Z,18.37
2023-04-19T16:22:48.707Z,18.32
2023-04-19T16:25:16.682Z,18.29
2023-04-19T16:27:44.756Z,18.24
2023-04-19T16:30:12.653Z,18.20
2023-04-19T16:32:40.067Z,18.17
2023-04-19T16:35:08.229Z,18.14
2023-04-19T16:37:35.376Z,18.12
2023-04-19T16:40:08.327Z,18.15
2023-04-19T16:42:36.088Z,18.09
2023-04-19T16:45:03.728Z,18.05
2023-04-19T16:47:31.176Z,18.02
2023-04-19T16:49:58.701Z,17.96
2023-04-19T16:52:26.616Z,17.98
2023-04-19T16:54:53.573Z,17.94
2023-04-19T16:57:20.784Z,17.91
2023-04-19T16:59:47.951Z,17.88
2023-04-19T17:02:14.955Z,17.85
2023-04-19T17:04:42.289Z,17.83
2023-04-19T17:07:09.208Z,17.79
2023-04-19T17:09:36.349Z,17.74
2023-04-19T17:12:03.498Z,17.70
2023-04-19T17:14:31.093Z,17.64
2023-04-19T17:16:57.787Z,17.59
2023-04-19T17:19:24.381Z,17.92
2023-04-19T17:21:51.135Z,17.52
2023-04-19T17:24:18.318Z,17.41
2023-04-19T17:26:44.980Z,17.31
2023-04-19T17:29:11.538Z,17.63
2023-04-19T17:31:38.227Z,17.21
2023-04-19T17:34:04.926Z,17.51
2023-04-19T17:36:32.041Z,17.08
2023-04-19T17:38:58.794Z,16.97
2023-04-19T17:41:25.454Z,16.89
2023-04-19T17:43:52.048Z,17.22
2023-04-19T17:46:19.389Z,16.82
2023-04-19T17:48:46.342Z,16.73
2023-04-19T17:51:12.949Z,16.66
2023-04-19T17:53:39.601Z,16.98
2023-04-19T17:56:06.274Z,16.60
2023-04-19T17:58:32.868Z,16.88
2023-04-19T18:01:00.845Z,16.49
2023-04-19T18:03:27.629Z,16.37
2023-04-19T18:05:54.280Z,16.30
2023-04-19T18:08:21.003Z,16.63
2023-04-19T18:10:47.636Z,16.24
2023-04-19T18:13:14.166Z,16.55
2023-04-19T18:15:40.826Z,16.15
2023-04-19T18:18:07.403Z,16.44
2023-04-19T18:20:34.108Z,16.05
2023-04-19T18:23:01.783Z,16.35
2023-04-19T18:25:35.228Z,15.97
2023-04-19T18:28:02.107Z,15.88
2023-04-19T18:30:28.780Z,15.80
2023-04-19T18:32:55.447Z,16.14
2023-04-19T18:35:22.307Z,15.75
2023-04-19T18:37:48.958Z,15.64
2023-04-19T18:40:15.657Z,15.96
2023-04-19T18:42:42.277Z,15.58
2023-04-19T18:45:09.456Z,15.49
2023-04-19T18:47:36.153Z,15.39
2023-04-19T18:50:05.292Z,15.70
2023-04-19T18:52:35.821Z,15.34
2023-04-19T18:55:03.368Z,15.23
2023-04-19T18:57:34.475Z,15.17
2023-04-19T19:00:01.807Z,15.09
2023-04-19T19:02:28.491Z,15.03
2023-04-19T19:04:57.630Z,15.37
2023-04-19T19:07:36.288Z,14.99
2023-04-19T19:10:17.038Z,14.95
2023-04-19T19:12:47.635Z,14.87
2023-04-19T19:15:14.918Z,14.81
2023-04-19T19:17:41.672Z,14.75
2023-04-19T19:20:10.198Z,14.70
2023-04-19T19:22:36.880Z,14.63
2023-04-19T19:25:03.582Z,14.93
2023-04-19T19:27:30.397Z,14.56
2023-04-19T19:29:58.831Z,14.83
2023-04-19T19:32:25.650Z,14.48
2023-04-19T19:34:56.631Z,14.76
2023-04-19T19:37:28.547Z,14.39
2023-04-19T19:39:56.907Z,14.31
